Time;durP1;ratioP1;P1;durP2;ratioP2;P2;SDS_P1;SDS_P2;PMS_P1;PMS_P2;Temp;Humidity;BMP_temperature;BMP_pressure;BME280_temperature;BME280_humidity;BME280_pressure;Samples;Min_cycle;Max_cycle;Signal;HPM_P1;HPM_P2
2023/05/27 00:02:42;;;;;;;7.45;2.88;;;;;;;7.28;100.00;103114.19;5020883;28;20099;-77
2023/05/27 00:05:26;;;;;;;11.40;3.00;;;;;;;7.29;100.00;103115.97;5019557;28;20103;-78
2023/05/27 00:08:10;;;;;;;8.32;3.15;;;;;;;7.33;100.00;103120.38;5007788;28;21126;-78
2023/05/27 00:10:54;;;;;;;5.82;2.70;;;;;;;7.34;100.00;103116.88;5023364;28;20163;-78
2023/05/27 00:13:38;;;;;;;7.47;2.78;;;;;;;7.36;100.00;103123.06;5029428;28;20052;-78
2023/05/27 00:16:23;;;;;;;10.27;3.15;;;;;;;7.38;100.00;103123.94;5022402;28;20043;-78
2023/05/27 00:19:07;;;;;;;8.40;2.95;;;;;;;7.40;100.00;103130.06;4991338;28;20136;-78
2023/05/27 00:21:54;;;;;;;7.70;3.08;;;;;;;7.39;100.00;103124.78;5021113;28;20062;-78
2023/05/27 00:24:39;;;;;;;9.82;3.15;;;;;;;7.38;100.00;103131.84;5012137;28;20053;-78
2023/05/27 00:27:23;;;;;;;8.13;3.17;;;;;;;7.34;100.00;103123.03;5015654;28;20056;-77
2023/05/27 00:30:08;;;;;;;8.02;3.10;;;;;;;7.31;100.00;103122.13;5015758;28;20043;-77
2023/05/27 00:32:52;;;;;;;8.57;3.28;;;;;;;7.29;100.00;103121.22;5014876;28;20052;-78
2023/05/27 00:35:36;;;;;;;6.43;3.00;;;;;;;7.26;100.00;103127.41;5020627;28;20072;-78
2023/05/27 00:38:21;;;;;;;10.13;3.60;;;;;;;7.23;100.00;103126.50;5017353;28;20090;-78
2023/05/27 00:41:05;;;;;;;10.13;3.50;;;;;;;7.18;100.00;103123.81;5022178;28;20133;-78
2023/05/27 00:43:49;;;;;;;11.25;3.53;;;;;;;7.14;100.00;103128.19;4992621;28;20116;-78
2023/05/27 00:46:36;;;;;;;8.70;3.40;;;;;;;7.10;100.00;103118.53;5023482;28;20107;-78
2023/05/27 00:49:20;;;;;;;9.27;3.20;;;;;;;7.07;100.00;103121.13;5006167;28;20096;-78
2023/05/27 00:52:04;;;;;;;10.10;3.13;;;;;;;7.05;100.00;103114.97;5030946;28;20124;-78
2023/05/27 00:54:48;;;;;;;12.70;3.47;;;;;;;7.03;100.00;103120.22;5006991;28;20685;-78
2023/05/27 00:57:33;;;;;;;11.18;3.90;;;;;;;7.02;100.00;103114.94;5026656;28;20041;-78
2023/05/27 01:00:17;;;;;;;13.52;4.00;;;;;;;6.98;100.00;103116.69;5010010;28;20056;-79
2023/05/27 01:07:02;;;;;;;9.23;3.13;;;;;;;6.95;100.00;103110.50;4970554;28;20141;-78
2023/05/27 01:10:05;;;;;;;7.32;3.00;;;;;;;6.89;100.00;103116.63;4970485;28;20390;-79
2023/05/27 01:13:01;;;;;;;7.38;3.55;;;;;;;6.87;100.00;103118.38;5000917;23;20104;-78
2023/05/27 01:15:47;;;;;;;8.50;3.50;;;;;;;6.85;100.00;103120.09;5039975;23;20072;-77
2023/05/27 01:18:34;;;;;;;13.40;3.40;;;;;;;6.84;100.00;103121.88;4987843;28;20101;-79
2023/05/27 01:21:24;;;;;;;8.75;3.70;;;;;;;6.80;100.00;103122.72;4971706;28;20052;-78
2023/05/27 01:24:08;;;;;;;10.27;3.42;;;;;;;6.78;100.00;103116.56;4972023;28;20097;-77
2023/05/27 01:26:53;;;;;;;9.38;3.17;;;;;;;6.74;100.00;103113.03;4986959;28;20044;-78
2023/05/27 01:29:39;;;;;;;8.90;3.60;;;;;;;6.70;100.00;103110.38;4987728;28;20052;-79
2023/05/27 01:32:44;;;;;;;10.48;3.50;;;;;;;6.67;100.00;103111.22;4962946;28;20223;-78
2023/05/27 01:35:32;;;;;;;6.47;3.13;;;;;;;6.66;100.00;103101.56;4975814;28;20048;-79
2023/05/27 01:38:18;;;;;;;7.90;3.25;;;;;;;6.66;100.00;103099.78;4974972;28;20140;-78
2023/05/27 01:41:06;;;;;;;8.27;3.40;;;;;;;6.66;100.00;103099.78;4972500;28;20108;-78
2023/05/27 01:43:51;;;;;;;9.48;3.63;;;;;;;6.63;100.00;103094.53;4973259;28;22340;-77
2023/05/27 01:46:36;;;;;;;7.57;3.30;;;;;;;6.63;100.00;103091.00;4986802;28;20265;-77
2023/05/27 01:49:20;;;;;;;10.85;3.20;;;;;;;6.62;100.00;103095.41;4985208;28;20137;-78
2023/05/27 01:52:04;;;;;;;4.85;3.15;;;;;;;6.62;100.00;103090.13;4972587;28;20100;-78
2023/05/27 01:54:49;;;;;;;11.80;3.40;;;;;;;6.62;100.00;103082.25;4986701;28;20036;-77
2023/05/27 01:57:33;;;;;;;8.20;3.70;;;;;;;6.62;100.00;103092.75;4989187;28;21992;-78
2023/05/27 02:00:18;;;;;;;7.65;3.17;;;;;;;6.60;100.00;103089.22;4989469;28;20049;-78
2023/05/27 02:03:02;;;;;;;8.35;2.97;;;;;;;6.58;100.00;103083.06;4989881;28;20069;-78
2023/05/27 02:05:46;;;;;;;10.13;3.35;;;;;;;6.55;100.00;103093.59;4988878;28;20048;-78
2023/05/27 02:08:30;;;;;;;13.27;3.63;;;;;;;6.51;100.00;103092.69;4987162;28;20141;-78
2023/05/27 02:11:14;;;;;;;6.40;3.00;;;;;;;6.50;100.00;103098.78;4960039;28;20048;-78
2023/05/27 02:13:59;;;;;;;12.27;3.40;;;;;;;6.48;100.00;103090.00;4988211;28;20057;-79
2023/05/27 02:16:44;;;;;;;7.38;3.17;;;;;;;6.47;100.00;103084.72;4986727;28;20138;-78
2023/05/27 02:19:28;;;;;;;6.07;2.95;;;;;;;6.43;100.00;103075.06;4988089;28;20056;-78
2023/05/27 02:22:13;;;;;;;9.15;2.78;;;;;;;6.44;100.00;103075.09;4991650;28;20052;-78
2023/05/27 02:24:57;;;;;;;10.02;3.30;;;;;;;6.46;100.00;103070.72;4988364;28;20920;-77
2023/05/27 02:27:43;;;;;;;6.60;3.17;;;;;;;6.49;100.00;103080.38;4991307;28;20129;-78
2023/05/27 02:30:29;;;;;;;10.00;3.28;;;;;;;6.56;100.00;103076.94;4989789;28;20189;-78
2023/05/27 02:33:20;;;;;;;10.07;3.65;;;;;;;6.59;100.00;103082.19;4991436;28;20097;-79
2023/05/27 02:36:05;;;;;;;12.18;3.10;;;;;;;6.59;100.00;103090.09;4975888;28;20259;-79
2023/05/27 02:38:49;;;;;;;9.25;3.30;;;;;;;6.60;100.00;103091.84;4978923;28;20124;-77
2023/05/27 02:41:34;;;;;;;8.52;3.60;;;;;;;6.58;100.00;103087.47;4986684;28;20052;-78
2023/05/27 02:44:18;;;;;;;13.50;3.08;;;;;;;6.57;100.00;103083.06;4989837;28;20588;-77
2023/05/27 02:47:02;;;;;;;10.52;3.35;;;;;;;6.55;100.00;103075.16;4989615;28;20056;-78
2023/05/27 02:49:46;;;;;;;5.65;2.90;;;;;;;6.57;100.00;103077.78;4975006;28;20188;-78
2023/05/27 02:52:30;;;;;;;8.27;2.72;;;;;;;6.61;100.00;103074.31;4969653;28;20073;-77
2023/05/27 02:55:14;;;;;;;7.05;3.20;;;;;;;6.63;100.00;103078.72;4988132;28;20109;-79
2023/05/27 02:57:58;;;;;;;7.60;3.33;;;;;;;6.66;100.00;103078.72;4978402;28;20512;-77
2023/05/27 03:00:42;;;;;;;8.75;3.08;;;;;;;6.65;100.00;103076.97;4985423;28;20046;-78
2023/05/27 03:03:26;;;;;;;8.05;2.85;;;;;;;6.65;100.00;103074.34;4976205;28;20112;-77
2023/05/27 03:06:11;;;;;;;7.00;3.22;;;;;;;6.65;100.00;103074.34;4986450;28;20797;-77
2023/05/27 03:08:55;;;;;;;10.38;3.45;;;;;;;6.65;100.00;103084.00;4976966;28;20144;-77
2023/05/27 03:11:39;;;;;;;13.13;3.50;;;;;;;6.64;100.00;103080.50;4989912;28;20105;-78
2023/05/27 03:14:24;;;;;;;5.60;2.70;;;;;;;6.66;100.00;103070.84;4977269;28;20852;-78
2023/05/27 03:17:08;;;;;;;7.30;2.47;;;;;;;6.68;100.00;103067.31;4989281;28;20184;-77
2023/05/27 03:19:52;;;;;;;8.27;2.88;;;;;;;6.68;100.00;103073.50;4988614;28;20088;-77
2023/05/27 03:22:36;;;;;;;11.05;3.03;;;;;;;6.70;100.00;103078.78;4990599;28;20056;-77
2023/05/27 03:25:20;;;;;;;6.32;2.67;;;;;;;6.71;100.00;103084.03;4980468;28;20512;-77
2023/05/27 03:28:05;;;;;;;7.88;2.63;;;;;;;6.70;100.00;103073.50;4991447;28;20037;-77
2023/05/27 03:30:49;;;;;;;9.75;3.22;;;;;;;6.71;100.00;103078.75;4980510;28;20048;-77
2023/05/27 03:33:33;;;;;;;8.70;2.60;;;;;;;6.72;100.00;103082.28;4976874;28;21235;-78
2023/05/27 03:36:17;;;;;;;6.80;2.60;;;;;;;6.75;100.00;103074.44;4988850;28;20060;-76
2023/05/27 03:39:01;;;;;;;14.38;3.53;;;;;;;6.76;100.00;103074.41;4989525;28;20574;-77
2023/05/27 03:41:46;;;;;;;11.00;2.90;;;;;;;6.79;100.00;103068.28;4988397;28;20158;-78
2023/05/27 03:44:30;;;;;;;4.95;2.75;;;;;;;6.81;100.00;103066.53;4990069;28;20052;-77
2023/05/27 03:47:17;;;;;;;8.52;2.67;;;;;;;6.80;100.00;103062.16;4990127;28;20122;-77
2023/05/27 03:50:02;;;;;;;7.88;2.67;;;;;;;6.79;100.00;103063.91;4989322;28;20966;-77
2023/05/27 03:52:46;;;;;;;6.68;2.40;;;;;;;6.81;100.00;103071.81;4989204;28;20044;-77
2023/05/27 03:55:30;;;;;;;8.90;2.65;;;;;;;6.85;100.00;103072.69;4976619;28;20206;-77
2023/05/27 03:58:16;;;;;;;7.28;3.10;;;;;;;6.87;100.00;103066.56;4989072;28;20100;-78
2023/05/27 04:01:00;;;;;;;7.25;2.67;;;;;;;6.89;100.00;103056.94;4985707;28;20049;-77
2023/05/27 04:03:44;;;;;;;10.65;2.50;;;;;;;6.93;100.00;103060.47;4987443;28;20053;-78
2023/05/27 04:06:28;;;;;;;11.18;2.53;;;;;;;6.96;100.00;103063.13;4978643;28;21986;-78
2023/05/27 04:09:13;;;;;;;7.53;2.90;;;;;;;7.01;100.00;103061.41;4976405;28;21959;-79
2023/05/27 04:11:57;;;;;;;7.60;2.53;;;;;;;7.07;100.00;103066.69;4990410;28;20069;-77
2023/05/27 04:14:41;;;;;;;4.88;2.38;;;;;;;7.11;100.00;103064.06;4989556;28;20175;-80
2023/05/27 04:17:26;;;;;;;7.82;2.80;;;;;;;7.14;100.00;103070.22;4978942;28;20096;-78
2023/05/27 04:20:13;;;;;;;12.05;3.00;;;;;;;7.17;100.00;103058.81;4961371;28;20088;-78
2023/05/27 04:23:00;;;;;;;9.43;2.70;;;;;;;7.20;100.00;103056.22;4980862;28;20053;-79
2023/05/27 04:25:44;;;;;;;10.18;2.92;;;;;;;7.26;100.00;103069.44;4978173;28;20167;-78
2023/05/27 04:28:28;;;;;;;11.35;3.10;;;;;;;7.30;100.00;103060.63;4979294;28;20045;-77
2023/05/27 04:31:16;;;;;;;13.80;3.10;;;;;;;7.37;100.00;103058.91;4992617;28;20101;-77
2023/05/27 04:34:00;;;;;;;4.95;2.80;;;;;;;7.43;100.00;103051.03;4975422;28;20421;-78
2023/05/27 04:36:49;;;;;;;9.73;2.90;;;;;;;7.50;100.00;103051.91;4979515;28;20072;-78
2023/05/27 04:39:35;;;;;;;5.40;3.00;;;;;;;7.61;100.00;103054.59;4991549;28;20139;-78
2023/05/27 04:42:20;;;;;;;8.60;3.20;;;;;;;7.71;100.00;103047.56;4991185;28;22077;-78
2023/05/27 04:45:08;;;;;;;11.10;3.35;;;;;;;7.81;100.00;103045.84;4983912;28;20080;-77
2023/05/27 04:47:52;;;;;;;15.18;3.58;;;;;;;7.90;100.00;103051.09;4997981;28;20040;-78
2023/05/27 04:50:46;;;;;;;11.48;2.85;;;;;;;7.99;100.00;103042.34;4994067;23;20037;-82
2023/05/27 04:53:30;;;;;;;9.45;3.20;;;;;;;8.06;100.00;103052.00;4943414;28;21077;-77
2023/05/27 04:56:16;;;;;;;9.55;3.10;;;;;;;8.15;100.00;103037.94;4936899;28;20069;-78
2023/05/27 04:59:00;;;;;;;8.60;3.40;;;;;;;8.24;100.00;103037.06;4957425;28;20091;-78
2023/05/27 05:04:47;;;;;;;7.95;3.00;;;;;;;8.40;100.00;103036.16;4939488;28;20525;-77
2023/05/27 05:07:37;;;;;;;5.25;2.63;;;;;;;8.50;100.00;103047.59;4958149;28;20145;-76
2023/05/27 05:10:21;;;;;;;8.80;3.05;;;;;;;8.56;100.00;103050.25;4953920;28;20214;-78
2023/05/27 05:13:05;;;;;;;10.77;2.92;;;;;;;8.61;100.00;103059.94;4948091;28;20077;-76
2023/05/27 05:15:49;;;;;;;9.82;3.05;;;;;;;8.65;100.00;103045.84;4976786;28;20062;-76
2023/05/27 05:18:33;;;;;;;4.97;2.90;;;;;;;8.72;100.00;103044.94;4976189;28;20128;-77
2023/05/27 05:21:17;;;;;;;9.73;3.60;;;;;;;8.77;100.00;103050.22;4975879;28;20109;-78
2023/05/27 05:24:01;;;;;;;5.15;2.70;;;;;;;8.79;100.00;103044.06;4975667;28;20105;-76
2023/05/27 05:26:45;;;;;;;8.45;3.22;;;;;;;8.85;100.00;103036.97;4959768;28;20049;-78
2023/05/27 05:29:29;;;;;;;11.57;3.28;;;;;;;8.94;100.00;103036.97;4970747;28;20053;-77
2023/05/27 05:32:13;;;;;;;9.88;3.05;;;;;;;9.12;100.00;103035.13;4974974;28;20189;-78
2023/05/27 05:34:57;;;;;;;9.48;3.45;;;;;;;9.32;100.00;103033.25;4972756;28;20048;-77
2023/05/27 05:37:41;;;;;;;12.75;2.78;;;;;;;9.48;100.00;103038.50;4968988;28;20557;-76
2023/05/27 05:40:25;;;;;;;6.25;2.85;;;;;;;9.63;100.00;103038.38;4974190;28;20103;-77
2023/05/27 05:43:12;;;;;;;7.65;3.03;;;;;;;9.71;100.00;103050.69;4972934;28;20049;-75
2023/05/27 05:45:56;;;;;;;9.90;2.80;;;;;;;9.71;100.00;103043.66;4973644;28;20089;-75
2023/05/27 05:48:40;;;;;;;10.15;3.55;;;;;;;9.81;100.00;103040.91;4965825;28;20081;-77
2023/05/27 05:51:24;;;;;;;7.93;2.38;;;;;;;9.91;100.00;103043.50;4942544;28;20105;-75
2023/05/27 05:54:09;;;;;;;7.70;2.40;;;;;;;10.04;100.00;103038.09;4971699;28;20060;-75
2023/05/27 05:56:53;;;;;;;8.25;2.65;;;;;;;10.18;100.00;103041.50;4943300;28;20110;-77
2023/05/27 05:59:37;;;;;;;7.55;2.58;;;;;;;10.36;100.00;103042.25;4970195;28;20070;-75
2023/05/27 06:02:21;;;;;;;7.32;2.63;;;;;;;10.55;100.00;103045.63;4970219;28;20126;-77
2023/05/27 06:05:06;;;;;;;8.15;2.55;;;;;;;10.62;100.00;103038.47;4967473;28;20052;-76
2023/05/27 06:07:50;;;;;;;8.52;2.55;;;;;;;10.70;100.00;103041.94;4970253;28;20065;-76
2023/05/27 06:10:35;;;;;;;5.68;2.55;;;;;;;10.84;100.00;103035.59;4970791;28;20465;-77
2023/05/27 06:13:21;;;;;;;9.32;2.63;;;;;;;10.91;100.00;103041.69;4958821;28;20516;-76
2023/05/27 06:16:05;;;;;;;10.10;2.78;;;;;;;10.87;100.00;103040.84;4971651;28;20049;-75
2023/05/27 06:18:49;;;;;;;6.45;2.22;;;;;;;10.79;100.00;103027.69;4956630;28;20046;-76
2023/05/27 06:21:33;;;;;;;6.00;2.72;;;;;;;10.83;100.00;103039.13;4957914;28;20196;-77
2023/05/27 06:24:19;;;;;;;9.75;2.40;;;;;;;10.78;100.00;103027.72;4957851;28;20173;-76
2023/05/27 06:27:04;;;;;;;7.03;2.25;;;;;;;10.76;100.00;103033.03;4959899;28;20037;-76
2023/05/27 06:29:48;;;;;;;9.82;2.53;;;;;;;10.77;100.00;103037.44;4971063;28;20053;-76
2023/05/27 06:32:32;;;;;;;5.10;2.10;;;;;;;10.76;100.00;103029.50;4972567;28;20061;-77
2023/05/27 06:35:16;;;;;;;8.68;2.95;;;;;;;10.72;100.00;103026.00;4971996;28;20086;-77
2023/05/27 06:38:00;;;;;;;4.78;2.55;;;;;;;10.76;100.00;103027.72;4972004;28;20283;-77
2023/05/27 06:40:46;;;;;;;9.80;2.70;;;;;;;10.73;100.00;103027.75;4971286;28;20314;-77
2023/05/27 06:43:30;;;;;;;6.18;2.30;;;;;;;10.79;100.00;103024.19;4957109;28;20663;-76
2023/05/27 06:46:14;;;;;;;4.88;2.35;;;;;;;10.84;100.00;103025.00;4976249;28;20401;-76
2023/05/27 06:48:58;;;;;;;6.13;2.10;;;;;;;10.93;100.00;103016.94;4977080;28;20103;-77
2023/05/27 06:51:43;;;;;;;6.93;2.08;;;;;;;11.05;100.00;103017.69;4948444;28;20061;-77
2023/05/27 06:54:27;;;;;;;8.30;3.00;;;;;;;11.09;100.00;103017.63;4978609;28;20061;-75
2023/05/27 06:57:14;;;;;;;4.13;2.13;;;;;;;11.07;100.00;103011.44;4977376;28;20170;-76
2023/05/27 06:59:58;;;;;;;8.48;3.03;;;;;;;11.19;100.00;103009.53;4978009;28;20084;-77
2023/05/27 07:02:42;;;;;;;5.55;2.33;;;;;;;11.41;100.00;103004.81;4978497;28;20080;-75
2023/05/27 07:05:26;;;;;;;5.82;2.42;;;;;;;11.70;100.00;103000.84;4975697;28;20120;-76
2023/05/27 07:08:10;;;;;;;6.72;2.65;;;;;;;11.80;100.00;103010.41;4976384;28;20089;-76
2023/05/27 07:10:54;;;;;;;6.65;2.67;;;;;;;11.92;100.00;103011.09;4976443;28;20152;-75
2023/05/27 07:13:38;;;;;;;6.78;2.67;;;;;;;12.20;100.00;103008.03;4976168;28;20061;-76
2023/05/27 07:16:22;;;;;;;6.97;2.35;;;;;;;12.50;100.00;103011.03;4962378;28;20675;-75
2023/05/27 07:19:06;;;;;;;6.95;2.38;;;;;;;12.64;100.00;103005.41;4973504;28;20531;-76
2023/05/27 07:21:50;;;;;;;8.35;2.70;;;;;;;12.86;100.00;102999.69;4962213;28;20108;-76
2023/05/27 07:24:37;;;;;;;5.05;2.33;;;;;;;12.97;100.00;103002.13;4978207;28;20072;-75
2023/05/27 07:27:23;;;;;;;5.93;2.50;;;;;;;13.02;100.00;102993.13;4976836;28;20053;-76
2023/05/27 07:30:08;;;;;;;10.20;2.67;;;;;;;13.09;100.00;102985.03;4962679;28;20441;-75
2023/05/27 07:33:03;;;;;;;9.35;2.92;;;;;;;13.26;100.00;102981.97;4975879;28;20069;-75
2023/05/27 07:35:47;;;;;;;8.27;2.33;;;;;;;13.44;100.00;102986.88;4976813;28;20041;-76
2023/05/27 07:38:31;;;;;;;8.20;2.75;;;;;;;13.51;100.00;102976.13;4976309;28;20109;-76
2023/05/27 07:41:15;;;;;;;7.28;2.17;;;;;;;13.58;100.00;102975.06;4951237;28;20050;-76
2023/05/27 07:44:00;;;;;;;7.20;2.42;;;;;;;13.71;100.00;102976.53;4977372;28;20053;-76
2023/05/27 07:46:44;;;;;;;13.70;2.40;;;;;;;13.75;100.00;102971.09;4977467;28;20457;-76
2023/05/27 07:49:30;;;;;;;6.30;2.08;;;;;;;13.87;100.00;102965.47;4963506;28;20060;-74
2023/05/27 07:52:17;;;;;;;5.93;2.05;;;;;;;14.05;100.00;102966.78;4959657;28;20086;-76
2023/05/27 07:55:02;;;;;;;8.50;2.45;;;;;;;14.04;100.00;102964.16;4970816;28;20089;-76
2023/05/27 07:57:45;;;;;;;8.65;2.45;;;;;;;14.12;100.00;102962.19;4962692;28;20077;-76
2023/05/27 08:00:30;;;;;;;7.93;2.08;;;;;;;14.28;100.00;102961.75;4978732;28;20096;-76
2023/05/27 08:03:15;;;;;;;7.70;2.58;;;;;;;14.45;100.00;102956.84;4963707;28;20088;-77
2023/05/27 08:06:00;;;;;;;6.45;2.30;;;;;;;14.51;100.00;102956.63;4943153;28;20161;-75
2023/05/27 08:08:44;;;;;;;10.15;2.35;;;;;;;14.51;100.00;102945.97;4949150;28;20061;-75
2023/05/27 08:11:28;;;;;;;9.57;2.60;;;;;;;14.55;100.00;102936.13;4959642;28;20049;-77
2023/05/27 08:14:12;;;;;;;7.63;2.50;;;;;;;14.68;100.00;102941.97;4978564;28;20127;-76
2023/05/27 08:17:00;;;;;;;5.65;2.60;;;;;;;14.55;100.00;102944.13;4966115;28;20057;-77
2023/05/27 08:19:44;;;;;;;6.78;2.65;;;;;;;14.45;100.00;102943.53;4961151;28;20449;-77
2023/05/27 08:22:28;;;;;;;6.10;2.42;;;;;;;14.49;100.00;102926.50;4961985;28;20081;-75
2023/05/27 08:25:12;;;;;;;7.22;2.45;;;;;;;14.39;100.00;102933.88;4951226;28;21080;-77
2023/05/27 08:28:01;;;;;;;6.00;2.28;;;;;;;14.24;100.00;102932.56;4965954;28;20540;-77
2023/05/27 08:30:46;;;;;;;5.00;2.35;;;;;;;14.43;100.00;102934.66;4977563;28;20037;-77
2023/05/27 08:33:30;;;;;;;6.32;2.63;;;;;;;14.47;100.00;102925.69;4973160;28;20629;-78
2023/05/27 08:36:15;;;;;;;8.20;2.33;;;;;;;14.48;100.00;102921.22;4976530;28;20120;-77
2023/05/27 08:39:00;;;;;;;6.85;2.47;;;;;;;14.50;100.00;102922.91;4974863;28;20065;-76
2023/05/27 08:41:44;;;;;;;9.30;2.67;;;;;;;14.68;100.00;102912.63;4951832;28;20385;-76
2023/05/27 08:44:29;;;;;;;9.85;2.42;;;;;;;14.97;100.00;102915.38;4961341;28;20126;-77
2023/05/27 08:47:14;;;;;;;10.57;3.03;;;;;;;15.23;100.00;102906.53;4975892;28;20096;-77
2023/05/27 08:49:58;;;;;;;8.20;2.83;;;;;;;15.51;100.00;102905.63;4979884;28;20095;-77
2023/05/27 08:52:47;;;;;;;7.88;2.65;;;;;;;15.76;100.00;102894.09;4993308;28;20128;-78
2023/05/27 08:55:31;;;;;;;7.68;2.65;;;;;;;16.09;100.00;102888.53;4981891;28;20587;-78
2023/05/27 08:58:16;;;;;;;7.70;2.17;;;;;;;16.32;100.00;102892.13;4978798;28;20041;-76
2023/05/27 09:01:07;;;;;;;7.93;2.60;;;;;;;16.47;99.57;102879.13;4996699;28;20120;-77
2023/05/27 09:03:55;;;;;;;7.25;2.60;;;;;;;16.63;98.44;102885.63;4992269;28;20112;-76
2023/05/27 09:06:39;;;;;;;6.07;2.65;;;;;;;16.64;96.74;102874.00;4995391;28;20061;-77
2023/05/27 09:09:23;;;;;;;8.10;2.33;;;;;;;16.65;98.52;102867.72;4995653;28;20926;-75
2023/05/27 09:12:10;;;;;;;6.50;2.35;;;;;;;16.68;96.12;102874.75;4997117;28;20112;-77
2023/05/27 09:14:57;;;;;;;14.95;2.97;;;;;;;16.84;98.28;102880.38;4994429;28;20045;-77
2023/05/27 09:17:42;;;;;;;8.02;2.65;;;;;;;16.82;97.11;102867.06;4993977;28;20049;-76
2023/05/27 09:23:58;;;;;;;9.23;2.38;;;;;;;16.55;93.33;102863.66;4994278;28;20390;-76
2023/05/27 09:26:42;;;;;;;7.75;2.50;;;;;;;16.48;93.84;102872.84;4979759;28;21246;-78
2023/05/27 09:29:27;;;;;;;8.40;3.25;;;;;;;16.52;92.95;102864.63;4980181;28;20073;-77
2023/05/27 09:32:11;;;;;;;8.85;2.75;;;;;;;16.61;93.12;102865.22;4980565;28;20045;-76
2023/05/27 09:34:58;;;;;;;7.18;2.70;;;;;;;16.77;93.08;102873.53;4995960;28;20049;-79
2023/05/27 09:37:45;;;;;;;8.88;2.70;;;;;;;16.78;91.62;102864.56;4963141;28;20045;-77
2023/05/27 09:40:28;;;;;;;6.57;2.58;;;;;;;16.78;92.24;102867.25;4981506;28;20064;-75
2023/05/27 09:43:16;;;;;;;6.85;2.80;;;;;;;16.91;90.82;102859.56;4995386;28;20049;-77
2023/05/27 09:46:10;;;;;;;7.90;2.75;;;;;;;17.00;88.78;102859.19;4993793;28;20535;-77
2023/05/27 09:48:56;;;;;;;6.35;2.45;;;;;;;17.12;86.39;102860.56;5004552;28;21081;-80
2023/05/27 09:51:45;;;;;;;7.25;2.40;;;;;;;17.22;86.93;102855.69;4988871;28;20159;-77
2023/05/27 09:54:32;;;;;;;8.90;2.63;;;;;;;17.24;86.05;102853.81;4992115;28;20776;-78
2023/05/27 09:57:19;;;;;;;9.02;2.67;;;;;;;17.19;84.43;102856.69;4992748;28;20798;-79
2023/05/27 10:00:12;;;;;;;8.93;3.20;;;;;;;17.04;82.74;102844.81;4979865;28;20503;-80
2023/05/27 10:02:58;;;;;;;6.35;2.72;;;;;;;16.98;82.62;102850.38;4976263;28;21188;-79
2023/05/27 10:05:44;;;;;;;5.72;2.72;;;;;;;16.89;84.23;102840.06;4987097;28;20041;-78
2023/05/27 10:08:28;;;;;;;10.95;2.85;;;;;;;16.87;84.78;102840.09;4978153;28;20048;-78
2023/05/27 10:11:13;;;;;;;9.07;2.70;;;;;;;16.89;85.85;102838.22;4978393;28;20194;-77
2023/05/27 10:13:58;;;;;;;6.43;3.17;;;;;;;17.04;85.55;102828.75;4962928;28;20060;-79
2023/05/27 10:16:53;;;;;;;9.48;2.90;;;;;;;17.23;84.34;102831.50;4994499;28;20484;-78
2023/05/27 10:19:48;;;;;;;9.00;2.85;;;;;;;17.22;84.13;102820.91;4983544;28;20045;-79
2023/05/27 10:22:39;;;;;;;5.88;3.03;;;;;;;17.13;82.30;102818.59;5000886;28;20076;-78
2023/05/27 10:25:40;;;;;;;11.48;3.42;;;;;;;17.09;80.43;102821.41;5003865;28;20176;-78
2023/05/27 10:28:33;;;;;;;7.97;3.10;;;;;;;17.02;82.27;102816.38;4982004;28;20515;-77
2023/05/27 10:31:18;;;;;;;9.93;3.65;;;;;;;17.07;82.80;102814.38;5001048;28;20064;-77
2023/05/27 10:34:06;;;;;;;6.45;2.80;;;;;;;17.27;82.88;102810.84;4969089;28;20448;-77
2023/05/27 10:37:00;;;;;;;7.30;3.05;;;;;;;17.21;81.51;102803.94;4982234;28;20793;-78
2023/05/27 10:39:54;;;;;;;7.40;3.20;;;;;;;17.19;79.74;102803.16;5003867;28;20036;-84
2023/05/27 10:45:34;;;;;;;7.63;3.15;;;;;;;17.20;82.32;102791.50;5004395;26;20556;-78
2023/05/27 10:48:20;;;;;;;7.28;3.20;;;;;;;17.28;83.38;102788.50;5015769;28;20412;-80
2023/05/27 10:51:06;;;;;;;8.43;3.30;;;;;;;17.37;82.81;102781.88;5019612;28;20132;-77
2023/05/27 10:53:51;;;;;;;8.35;3.40;;;;;;;17.31;81.94;102772.31;5019523;28;20052;-78
2023/05/27 10:56:35;;;;;;;9.65;3.33;;;;;;;17.22;82.34;102776.25;5014082;28;20043;-78
2023/05/27 10:59:23;;;;;;;5.28;2.92;;;;;;;17.17;82.77;102775.56;5008420;28;20037;-79
2023/05/27 11:02:07;;;;;;;8.23;3.35;;;;;;;17.20;83.55;102769.22;5034692;28;20044;-78
2023/05/27 11:04:52;;;;;;;11.93;3.25;;;;;;;17.20;82.29;102770.09;5016176;28;20137;-79
2023/05/27 11:07:40;;;;;;;9.63;3.50;;;;;;;17.30;83.34;102767.00;5028194;28;20196;-79
2023/05/27 11:10:24;;;;;;;7.90;3.33;;;;;;;17.38;82.55;102760.41;5014743;28;20047;-78
2023/05/27 11:13:08;;;;;;;8.18;3.53;;;;;;;17.48;82.25;102752.81;5035674;28;20136;-78
2023/05/27 11:15:52;;;;;;;8.18;3.50;;;;;;;17.62;82.02;102754.00;5015061;28;20067;-77
2023/05/27 11:18:41;;;;;;;9.20;3.83;;;;;;;17.73;80.51;102742.81;5035647;28;20048;-78
2023/05/27 11:21:26;;;;;;;9.40;3.13;;;;;;;17.73;80.51;102732.97;5016364;28;20148;-79
2023/05/27 11:24:20;;;;;;;9.20;3.22;;;;;;;17.72;79.74;102739.28;5037865;28;20052;-78
2023/05/27 11:27:12;;;;;;;9.60;3.35;;;;;;;17.78;79.29;102741.66;5034115;28;20095;-78
2023/05/27 11:29:56;;;;;;;7.15;3.28;;;;;;;17.80;80.34;102727.34;5035509;28;20044;-77
2023/05/27 11:32:41;;;;;;;10.05;3.35;;;;;;;17.90;79.43;102723.28;5034522;28;20128;-79
2023/05/27 11:35:28;;;;;;;9.52;3.63;;;;;;;17.91;79.01;102720.53;5027825;28;20554;-78
2023/05/27 11:38:17;;;;;;;5.53;3.30;;;;;;;17.89;78.40;102714.38;5035491;28;20083;-78
2023/05/27 11:41:08;;;;;;;10.73;3.60;;;;;;;17.86;78.09;102700.28;5022915;28;20168;-77
2023/05/27 11:44:06;;;;;;;8.82;3.10;;;;;;;17.88;75.59;102701.91;5019512;28;20111;-77
2023/05/27 11:46:52;;;;;;;5.45;2.78;;;;;;;17.90;78.54;102699.16;5019446;28;20052;-78
2023/05/27 11:49:36;;;;;;;11.65;3.60;;;;;;;18.03;78.44;102697.63;5034527;28;20052;-78
2023/05/27 11:52:27;;;;;;;7.78;3.47;;;;;;;18.09;77.63;102692.97;5036265;28;20071;-77
2023/05/27 11:55:14;;;;;;;9.80;3.60;;;;;;;18.02;77.13;102693.22;5012470;28;20056;-77
2023/05/27 11:57:58;;;;;;;10.48;3.60;;;;;;;18.13;77.68;102686.50;5007074;28;20707;-78
2023/05/27 12:00:42;;;;;;;8.68;3.55;;;;;;;18.07;76.56;102676.09;5037070;28;20127;-78
2023/05/27 12:03:26;;;;;;;7.40;3.35;;;;;;;17.98;76.67;102678.22;5034394;28;20043;-78
2023/05/27 12:06:11;;;;;;;11.80;3.47;;;;;;;17.99;76.90;102671.94;5037355;28;20106;-77
2023/05/27 12:08:55;;;;;;;8.18;3.83;;;;;;;18.02;76.28;102666.44;5036209;28;20633;-78
2023/05/27 12:11:40;;;;;;;8.90;3.58;;;;;;;18.03;76.17;102668.16;5036527;28;20055;-78
2023/05/27 12:14:24;;;;;;;8.52;3.95;;;;;;;18.10;76.25;102654.50;5018261;28;20102;-78
2023/05/27 12:17:08;;;;;;;12.88;4.15;;;;;;;18.13;75.80;102657.91;5020114;28;20067;-78
2023/05/27 12:19:52;;;;;;;8.32;4.03;;;;;;;18.04;76.04;102653.81;5033679;28;20044;-78
2023/05/27 12:22:37;;;;;;;9.25;4.30;;;;;;;18.20;76.34;102645.06;5035787;28;20140;-79
2023/05/27 12:25:21;;;;;;;10.75;4.03;;;;;;;18.37;76.88;102643.34;5019604;28;20075;-77
2023/05/27 12:28:09;;;;;;;6.20;3.97;;;;;;;18.51;75.60;102634.63;5027912;28;20048;-78
2023/05/27 12:30:53;;;;;;;9.40;4.55;;;;;;;18.52;75.44;102631.84;5018056;28;20048;-80
2023/05/27 12:33:37;;;;;;;8.52;4.30;;;;;;;18.44;74.91;102637.63;5018638;28;20193;-81
2023/05/27 12:36:21;;;;;;;7.70;4.07;;;;;;;18.39;74.78;102626.25;5033358;28;20122;-80
2023/05/27 12:39:06;;;;;;;7.70;4.22;;;;;;;18.30;76.36;102614.16;5018546;28;20048;-80
2023/05/27 12:41:50;;;;;;;7.15;3.85;;;;;;;18.32;75.32;102623.00;5034596;28;20040;-78
2023/05/27 12:44:35;;;;;;;7.97;4.00;;;;;;;18.49;76.94;102620.41;5018492;28;20826;-79
2023/05/27 12:47:19;;;;;;;12.07;4.20;;;;;;;18.71;77.67;102609.44;5029189;28;20060;-78
2023/05/27 12:50:06;;;;;;;8.35;3.55;;;;;;;18.81;76.72;102610.72;5017471;28;20044;-77
2023/05/27 12:52:51;;;;;;;8.35;4.35;;;;;;;18.89;77.14;102602.22;5018924;28;20051;-77
2023/05/27 12:55:36;;;;;;;7.88;4.05;;;;;;;18.93;76.83;102598.44;5043591;28;20479;-77
2023/05/27 12:58:20;;;;;;;7.97;4.00;;;;;;;18.93;76.08;102600.25;5014664;28;20052;-79
2023/05/27 13:01:05;;;;;;;6.40;3.20;;;;;;;18.96;76.20;102595.59;5017850;28;20173;-79